ENSB Airport Information

Runway Information
Runway 10 Length 7608 ft width 148 ft
Elevation 63 ft Threshold 199 ft Heading 105
Runway 28 Length 7608 ft Width 148 ft
Elevation 73 ft Threshold 395 ft Heading 285
Airport Frequencies
Type AFIS Name INFO Frequency 118.1 MHZ
Type AFIS Name INFO Frequency 884 MHZ
Airport Navaids
Airport Weather Information & NOTAM
ADDS - METARS form results

(0644 UTC 16 September 2019)
Data provider http://aviationweather.gov/metar/data/
 
METAR text: ENSB 160620Z 11017KT 9999 VCSH FEW015 BKN035 02/M02 Q1017 TEMPO 12020G30KT RMK WIND 1400FT 09017KT
Conditions at: ENSB (SVALBARD/LONGYEA, NO) observed 0620 UTC 16 September 2019
Temperature: 2.0°C (36°F)
Dewpoint: -2.0°C (28°F) [RH = 75%]
Pressure (altimeter): 30.03 inches Hg (1017.0 mb)
Winds: from the ESE (110 degrees) at 20 MPH (17 knots; 8.7 m/s)
Visibility: 6 or more miles (10+ km)
Ceiling: 3500 feet AGL
Clouds: few clouds at 1500 feet AGL
broken clouds at 3500 feet AGL
Weather: VCSH  (showers in vicinity)

METAR text: ENSB 160550Z 12020KT 9999 VCSH FEW015 BKN035 02/M02 Q1017 TEMPO 12020G30KT RMK WIND 1400FT 09021KT
Conditions at: ENSB (SVALBARD/LONGYEA, NO) observed 0550 UTC 16 September 2019
Temperature: 2.0°C (36°F)
Dewpoint: -2.0°C (28°F) [RH = 75%]
Pressure (altimeter): 30.03 inches Hg (1017.0 mb)
Winds: from the ESE (120 degrees) at 23 MPH (20 knots; 10.3 m/s)
Visibility: 6 or more miles (10+ km)
Ceiling: 3500 feet AGL
Clouds: few clouds at 1500 feet AGL
broken clouds at 3500 feet AGL
Weather: VCSH  (showers in vicinity)

Forecast for: ENSB (SVALBARD/LONGYEA, NO)
Text: TAF ENSB 1606/1706 12018KT 9999 FEW025 BKN040
Forecast period: 0600 UTC 16 September 2019 to 0600 UTC 17 September 2019
Forecast type: FROM: standard forecast or significant change
Winds: from the ESE (120 degrees) at 21 MPH (18 knots; 9.3 m/s)
Visibility: 6 or more miles 10+ km)
Ceiling: 4000 feet AGL
Clouds: few clouds at 2500 feet AGL
broken clouds at 4000 feet AGL
Weather: no significant weather forecast for this period
Text: TEMPO 1606/1615 12025G35KT
Forecast period: 0600 to 1500 UTC 16 September 2019
Forecast type: TEMPORARY: The following changes expected for less than half the time period
Winds: from the ESE (120 degrees) at 29 MPH (25 knots; 12.9 m/s)
gusting to 40 MPH (35 knots; 18.0 m/s)
Visibility: missing
Ceiling: unknown
Clouds: missing
Weather: no significant weather forecast for this period